createdAt,value
2019-05-02T00:01:28.951Z,45.40
2019-05-02T00:03:59.606Z,50.27
2019-05-02T00:06:31.588Z,42.20
2019-05-02T00:09:03.931Z,44.30
2019-05-02T00:11:36.352Z,43.00
2019-05-02T00:14:07.047Z,44.50
2019-05-02T00:16:37.808Z,48.10
2019-05-02T00:19:09.134Z,47.47
2019-05-02T00:21:43.207Z,50.07
2019-05-02T00:24:14.199Z,46.17
2019-05-02T00:26:44.987Z,44.90
2019-05-02T00:29:18.993Z,41.57
2019-05-02T00:31:52.537Z,46.30
2019-05-02T00:34:23.319Z,47.17
2019-05-02T00:36:54.001Z,40.17
2019-05-02T00:39:24.587Z,46.00
2019-05-02T00:41:55.197Z,43.07
2019-05-02T00:44:25.793Z,42.37
2019-05-02T00:46:57.897Z,40.53
2019-05-02T00:49:30.849Z,42.97
2019-05-02T00:52:01.373Z,41.67
2019-05-02T00:54:32.802Z,41.47
2019-05-02T00:57:03.444Z,38.30
2019-05-02T00:59:37.820Z,35.83
2019-05-02T01:02:16.153Z,34.03
2019-05-02T01:04:47.654Z,37.00
2019-05-02T01:07:20.465Z,32.20
2019-05-02T01:09:50.934Z,31.03
2019-05-02T01:12:26.644Z,29.33
2019-05-02T01:14:53.904Z,31.97
2019-05-02T01:17:26.171Z,31.73
2019-05-02T01:19:57.845Z,34.90
2019-05-02T01:22:28.373Z,31.13
2019-05-02T01:24:59.060Z,31.10
2019-05-02T01:27:48.592Z,29.00
2019-05-02T01:30:42.312Z,26.50
2019-05-02T01:33:41.673Z,30.83
2019-05-02T01:36:19.543Z,23.03
2019-05-02T01:38:51.166Z,27.77
2019-05-02T01:41:23.955Z,27.93
2019-05-02T01:43:54.948Z,26.77
2019-05-02T01:46:26.060Z,27.67
2019-05-02T01:48:56.617Z,26.13
2019-05-02T01:51:27.198Z,29.00
2019-05-02T01:53:57.711Z,24.27
2019-05-02T01:56:28.573Z,24.20
2019-05-02T01:59:00.336Z,22.93
2019-05-02T02:01:30.864Z,22.50
2019-05-02T02:04:01.414Z,21.97
2019-05-02T02:06:31.996Z,26.73
2019-05-02T02:09:03.491Z,25.40
2019-05-02T02:11:38.225Z,22.67
2019-05-02T02:14:12.840Z,21.80
2019-05-02T02:16:41.167Z,17.27
2019-05-02T02:19:27.564Z,21.20
2019-05-02T02:22:11.111Z,20.73
2019-05-02T02:24:47.850Z,19.57
2019-05-02T02:27:20.035Z,20.13
2019-05-02T02:29:50.441Z,20.43
2019-05-02T02:32:27.042Z,20.83
2019-05-02T02:34:54.276Z,19.83
2019-05-02T02:37:25.362Z,24.20
2019-05-02T02:39:56.465Z,18.10
2019-05-02T02:42:31.535Z,21.63
2019-05-02T02:45:12.832Z,20.30
2019-05-02T02:47:44.108Z,20.40
2019-05-02T02:50:14.826Z,20.83
2019-05-02T02:52:47.157Z,19.87
2019-05-02T02:55:22.195Z,25.20
2019-05-02T02:57:50.296Z,23.43
2019-05-02T03:00:20.873Z,18.27
2019-05-02T03:02:51.554Z,22.10
2019-05-02T03:05:25.876Z,21.47
2019-05-02T03:07:59.552Z,23.93
2019-05-02T03:10:27.717Z,28.13
2019-05-02T03:13:21.667Z,22.30
2019-05-02T03:15:52.320Z,27.30
2019-05-02T03:18:26.601Z,23.70
2019-05-02T03:20:56.240Z,24.17
2019-05-02T03:23:26.698Z,23.90
2019-05-02T03:25:57.200Z,22.20
2019-05-02T03:28:27.686Z,25.87
2019-05-02T03:30:58.291Z,22.93
2019-05-02T03:33:29.108Z,25.53
2019-05-02T03:35:59.609Z,24.27
2019-05-02T03:38:32.721Z,26.17
2019-05-02T03:41:02.331Z,32.00
2019-05-02T03:43:33.185Z,24.50
2019-05-02T03:46:04.807Z,26.27
2019-05-02T03:48:35.398Z,24.13
2019-05-02T03:51:19.919Z,25.00
2019-05-02T03:53:38.110Z,27.60
2019-05-02T03:56:11.363Z,26.53
2019-05-02T03:58:48.692Z,21.37
2019-05-02T04:01:14.034Z,23.53
2019-05-02T04:03:44.782Z,21.33
2019-05-02T04:06:21.119Z,25.77
2019-05-02T04:08:58.884Z,25.87
2019-05-02T04:11:25.895Z,23.97
2019-05-02T04:13:57.051Z,21.53
2019-05-02T04:16:30.598Z,22.50
2019-05-02T04:19:05.986Z,26.17
2019-05-02T04:21:37.164Z,25.00
2019-05-02T04:24:13.423Z,22.43
2019-05-02T04:26:52.702Z,25.00
2019-05-02T04:29:13.183Z,27.10
2019-05-02T04:31:43.638Z,26.30
2019-05-02T04:34:17.483Z,26.80
2019-05-02T04:36:53.425Z,25.43
2019-05-02T04:39:21.621Z,25.20
2019-05-02T04:41:51.542Z,21.93
2019-05-02T04:44:21.979Z,24.13
2019-05-02T04:46:52.602Z,23.27
2019-05-02T04:49:32.694Z,22.33
2019-05-02T04:52:01.881Z,25.03
2019-05-02T04:54:31.527Z,23.10
2019-05-02T04:57:02.563Z,22.33
2019-05-02T04:59:33.261Z,26.77
2019-05-02T05:02:03.967Z,23.87
2019-05-02T05:04:42.380Z,25.43
2019-05-02T05:07:09.318Z,25.43
2019-05-02T05:09:40.217Z,23.93
2019-05-02T05:12:12.019Z,28.13
2019-05-02T05:14:43.395Z,25.80
2019-05-02T05:17:14.169Z,23.40
2019-05-02T05:19:45.128Z,25.00
2019-05-02T05:22:18.249Z,31.70
2019-05-02T05:24:58.259Z,29.47
2019-05-02T05:27:28.799Z,28.43
2019-05-02T05:30:07.671Z,26.33
2019-05-02T05:32:31.549Z,32.23
2019-05-02T05:35:03.413Z,32.70
2019-05-02T05:37:34.312Z,30.27
2019-05-02T05:40:05.084Z,30.43
2019-05-02T05:42:37.792Z,31.55
2019-05-02T05:45:09.863Z,29.97
2019-05-02T05:47:40.316Z,28.00
2019-05-02T05:50:11.190Z,27.02
2019-05-02T05:52:42.592Z,29.03
2019-05-02T05:55:20.354Z,29.50
2019-05-02T05:57:49.724Z,25.55
2019-05-02T06:00:22.998Z,27.93
2019-05-02T06:02:56.081Z,24.10
2019-05-02T06:05:22.514Z,27.00
2019-05-02T06:07:53.022Z,27.13
2019-05-02T06:10:23.552Z,30.08
2019-05-02T06:12:54.268Z,26.00
2019-05-02T06:15:24.897Z,27.48
2019-05-02T06:17:55.468Z,26.93
2019-05-02T06:20:30.605Z,26.95
2019-05-02T06:23:01.209Z,28.62
2019-05-02T06:25:36.122Z,29.80
2019-05-02T06:28:06.758Z,30.43
2019-05-02T06:30:37.456Z,31.95
2019-05-02T06:33:08.048Z,31.40
2019-05-02T06:35:38.560Z,36.13
2019-05-02T06:38:09.091Z,31.90
2019-05-02T06:40:44.782Z,30.57
2019-05-02T06:43:11.786Z,33.33
2019-05-02T06:45:42.345Z,36.27
2019-05-02T06:48:17.777Z,29.47
2019-05-02T06:50:47.605Z,29.17
2019-05-02T06:53:18.134Z,28.23
2019-05-02T06:55:50.080Z,27.77
2019-05-02T06:58:20.724Z,28.93
2019-05-02T07:00:57.989Z,31.87
2019-05-02T07:03:27.392Z,25.97
2019-05-02T07:05:58.872Z,29.57
2019-05-02T07:08:30.711Z,26.80
2019-05-02T07:11:03.120Z,25.72
2019-05-02T07:13:36.442Z,29.63
2019-05-02T07:16:38.429Z,30.60
2019-05-02T07:19:16.443Z,30.00
2019-05-02T07:21:46.769Z,27.63
2019-05-02T07:24:17.334Z,30.53
2019-05-02T07:26:52.066Z,28.70
2019-05-02T07:29:21.896Z,32.87
2019-05-02T07:31:53.675Z,31.53
2019-05-02T07:34:24.361Z,31.40
2019-05-02T07:36:54.825Z,33.37
2019-05-02T07:39:26.732Z,30.60
2019-05-02T07:42:00.532Z,28.63
2019-05-02T07:44:32.575Z,32.57
2019-05-02T07:47:04.753Z,34.33
2019-05-02T07:49:35.473Z,30.07
2019-05-02T07:52:06.184Z,34.80
2019-05-02T07:54:36.862Z,31.00
2019-05-02T07:57:07.470Z,41.20
2019-05-02T07:59:38.313Z,32.23
2019-05-02T08:02:09.012Z,32.43
2019-05-02T08:04:43.563Z,40.93
2019-05-02T08:07:16.162Z,34.90
2019-05-02T08:09:44.185Z,33.13
2019-05-02T08:12:17.622Z,33.90
2019-05-02T08:14:48.214Z,32.73
2019-05-02T08:17:19.289Z,34.13
2019-05-02T08:19:50.138Z,33.97
2019-05-02T08:22:20.710Z,36.63
2019-05-02T08:24:51.246Z,37.10
2019-05-02T08:27:40.673Z,40.13
2019-05-02T08:30:23.384Z,34.00
2019-05-02T08:32:54.062Z,33.50
2019-05-02T08:35:28.026Z,34.23
2019-05-02T08:37:58.300Z,35.33
2019-05-02T08:40:28.862Z,36.27
2019-05-02T08:43:03.684Z,31.53
2019-05-02T08:45:38.136Z,33.80
2019-05-02T08:48:06.751Z,32.90
2019-05-02T08:50:37.768Z,33.67
2019-05-02T08:53:08.272Z,34.50
2019-05-02T08:55:41.427Z,37.27
2019-05-02T08:58:14.368Z,33.93
2019-05-02T09:00:47.190Z,30.53
2019-05-02T09:03:17.802Z,27.10
2019-05-02T09:05:50.732Z,36.43
2019-05-02T09:08:21.388Z,34.67
2019-05-02T09:10:53.431Z,38.73
2019-05-02T09:13:29.085Z,35.23
2019-05-02T09:15:56.386Z,37.30
2019-05-02T09:18:35.053Z,35.97
2019-05-02T09:20:59.218Z,37.50
2019-05-02T09:23:35.389Z,42.43
2019-05-02T09:26:02.601Z,32.93
2019-05-02T09:28:33.441Z,35.80
2019-05-02T09:31:06.596Z,31.40
2019-05-02T09:33:36.787Z,34.70
2019-05-02T09:36:08.420Z,35.30
2019-05-02T09:38:39.024Z,33.37
2019-05-02T09:41:18.742Z,28.03
2019-05-02T09:43:42.967Z,30.87
2019-05-02T09:46:16.637Z,29.13
2019-05-02T09:48:45.795Z,28.77
2019-05-02T09:51:17.361Z,27.03
2019-05-02T09:53:48.198Z,30.77
2019-05-02T09:56:22.003Z,26.17
2019-05-02T09:58:55.054Z,26.13
2019-05-02T10:01:36.895Z,28.10
2019-05-02T10:04:08.083Z,29.97
2019-05-02T10:06:38.735Z,24.70
2019-05-02T10:09:12.028Z,28.03
2019-05-02T10:11:43.444Z,27.83
2019-05-02T10:14:14.060Z,26.93
2019-05-02T10:16:44.624Z,26.97
2019-05-02T10:19:15.163Z,25.23
2019-05-02T10:21:46.970Z,26.73
2019-05-02T10:24:18.023Z,41.67
2019-05-02T10:26:48.533Z,33.90
2019-05-02T10:29:20.994Z,33.70
2019-05-02T10:31:52.636Z,31.23
2019-05-02T10:34:23.527Z,31.20
2019-05-02T10:36:59.042Z,32.00
2019-05-02T10:39:28.450Z,35.53
2019-05-02T10:41:58.398Z,37.10
2019-05-02T10:44:32.592Z,33.27
2019-05-02T10:47:02.857Z,38.20
2019-05-02T10:49:45.437Z,38.03
2019-05-02T10:52:16.350Z,33.73
2019-05-02T10:54:48.180Z,35.77
2019-05-02T10:57:18.712Z,42.20
2019-05-02T10:59:49.323Z,37.03
2019-05-02T11:02:38.953Z,34.63
2019-05-02T11:05:16.874Z,37.57
2019-05-02T11:07:48.219Z,38.63
2019-05-02T11:10:18.806Z,39.17
2019-05-02T11:13:12.747Z,35.33
2019-05-02T11:16:01.928Z,35.47
2019-05-02T11:18:52.251Z,37.27
2019-05-02T11:21:22.926Z,37.33
2019-05-02T11:23:53.712Z,31.57
2019-05-02T11:26:25.591Z,28.43
2019-05-02T11:28:56.184Z,30.60
2019-05-02T11:31:26.778Z,29.97
2019-05-02T11:33:58.803Z,32.20
2019-05-02T11:36:29.385Z,25.80
2019-05-02T11:39:10.343Z,26.87
2019-05-02T11:41:33.863Z,27.70
2019-05-02T11:44:05.894Z,26.87
2019-05-02T11:46:37.571Z,26.60
2019-05-02T11:49:08.527Z,28.87
2019-05-02T11:51:39.157Z,26.97
2019-05-02T11:54:09.709Z,26.87
2019-05-02T11:56:41.125Z,31.60
2019-05-02T11:59:14.767Z,28.43
2019-05-02T12:01:59.124Z,26.87
2019-05-02T12:04:21.558Z,25.30
2019-05-02T12:07:01.060Z,22.70
2019-05-02T12:09:24.624Z,26.97
2019-05-02T12:11:56.743Z,26.23
2019-05-02T12:14:34.580Z,21.60
2019-05-02T12:17:02.629Z,24.90
2019-05-02T12:19:33.374Z,25.97
2019-05-02T12:22:07.225Z,23.13
2019-05-02T12:24:36.420Z,23.53
2019-05-02T12:27:08.282Z,26.67
2019-05-02T12:29:38.823Z,25.03
2019-05-02T12:32:16.690Z,22.20
2019-05-02T12:34:47.845Z,23.87
2019-05-02T12:37:18.403Z,27.57
2019-05-02T12:39:48.847Z,22.83
2019-05-02T12:42:19.808Z,23.63
2019-05-02T12:44:50.512Z,27.97
2019-05-02T12:47:22.548Z,25.77
2019-05-02T12:49:53.278Z,24.17
2019-05-02T12:52:23.811Z,23.93
2019-05-02T12:54:54.428Z,26.37
2019-05-02T12:57:24.924Z,26.07
2019-05-02T12:59:56.985Z,20.87
2019-05-02T13:02:49.280Z,25.20
2019-05-02T13:05:19.936Z,23.13
2019-05-02T13:07:55.266Z,24.03
2019-05-02T13:10:32.718Z,23.23
2019-05-02T13:13:03.785Z,27.47
2019-05-02T13:15:34.841Z,28.47
2019-05-02T13:18:05.771Z,27.13
2019-05-02T13:20:38.258Z,27.97
2019-05-02T13:23:34.120Z,26.80
2019-05-02T13:26:02.820Z,24.97
2019-05-02T13:28:36.094Z,24.20
2019-05-02T13:31:13.745Z,21.80
2019-05-02T13:34:01.845Z,22.40
2019-05-02T13:36:48.030Z,21.60
2019-05-02T13:39:47.786Z,31.27
2019-05-02T13:42:18.627Z,32.77
2019-05-02T13:45:08.224Z,21.67
2019-05-02T13:47:38.910Z,22.93
2019-05-02T13:50:10.155Z,24.83
2019-05-02T13:52:45.015Z,22.43
2019-05-02T13:55:14.903Z,22.37
2019-05-02T13:57:47.374Z,28.10
2019-05-02T14:00:25.721Z,33.37
2019-05-02T14:02:56.770Z,23.57
2019-05-02T14:05:27.471Z,21.70
2019-05-02T14:08:15.583Z,26.37
2019-05-02T14:10:47.784Z,30.53
2019-05-02T14:13:18.370Z,24.23
2019-05-02T14:15:49.006Z,23.93
2019-05-02T14:18:23.318Z,24.87
2019-05-02T14:20:52.730Z,25.03
2019-05-02T14:23:23.435Z,26.30
2019-05-02T14:25:57.660Z,25.50
2019-05-02T14:28:32.279Z,25.00
2019-05-02T14:31:02.141Z,25.17
2019-05-02T14:33:36.603Z,24.43
2019-05-02T14:36:07.115Z,25.87
2019-05-02T14:38:37.842Z,24.97
2019-05-02T14:41:12.926Z,23.67
2019-05-02T14:43:52.859Z,27.70
2019-05-02T14:46:28.792Z,28.47
2019-05-02T14:48:58.413Z,24.87
2019-05-02T14:51:28.908Z,26.07
2019-05-02T14:54:03.760Z,26.90
2019-05-02T14:56:52.135Z,24.20
2019-05-02T14:59:23.385Z,26.20
2019-05-02T15:02:03.119Z,24.23
2019-05-02T15:04:29.238Z,26.73
2019-05-02T15:07:02.067Z,31.00
2019-05-02T15:09:36.147Z,26.47
2019-05-02T15:12:13.512Z,33.93
2019-05-02T15:14:38.867Z,29.53
2019-05-02T15:17:09.552Z,25.07
2019-05-02T15:19:40.317Z,30.80
2019-05-02T15:22:12.447Z,28.47
2019-05-02T15:24:43.161Z,23.83
2019-05-02T15:27:17.735Z,31.73
2019-05-02T15:29:45.880Z,27.10
2019-05-02T15:32:44.999Z,27.60
2019-05-02T15:35:31.673Z,26.57
2019-05-02T15:38:06.561Z,27.30
2019-05-02T15:40:43.350Z,22.40
2019-05-02T15:43:09.700Z,29.97
2019-05-02T15:45:43.423Z,27.93
2019-05-02T15:48:14.559Z,26.40
2019-05-02T15:50:50.193Z,29.20
2019-05-02T15:53:46.709Z,22.83
2019-05-02T15:56:19.654Z,21.80
2019-05-02T15:58:44.467Z,24.40
2019-05-02T16:01:41.627Z,22.57
2019-05-02T16:04:12.698Z,31.20
2019-05-02T16:06:46.870Z,22.60
2019-05-02T16:09:17.171Z,21.33
2019-05-02T16:11:48.111Z,24.00
2019-05-02T16:14:20.021Z,19.43
2019-05-02T16:16:52.093Z,21.87
2019-05-02T16:19:28.570Z,25.73
2019-05-02T16:22:06.283Z,20.53
2019-05-02T16:24:32.333Z,26.93
2019-05-02T16:27:02.916Z,19.33
2019-05-02T16:29:34.821Z,22.83
2019-05-02T16:32:21.975Z,17.97
2019-05-02T16:35:12.247Z,25.20
2019-05-02T16:37:37.217Z,19.57
2019-05-02T16:40:11.903Z,22.93
2019-05-02T16:42:42.917Z,23.03
2019-05-02T16:45:16.537Z,20.13
2019-05-02T16:47:49.788Z,17.33
2019-05-02T16:50:20.053Z,22.13
2019-05-02T16:52:50.552Z,21.30
2019-05-02T16:55:26.333Z,19.50
2019-05-02T16:57:56.665Z,21.93
2019-05-02T17:00:28.243Z,20.27
2019-05-02T17:02:58.860Z,23.77
2019-05-02T17:05:29.530Z,19.17
2019-05-02T17:08:20.031Z,23.13
2019-05-02T17:10:57.037Z,20.67
2019-05-02T17:13:32.065Z,20.60
2019-05-02T17:16:06.893Z,23.37
2019-05-02T17:18:32.682Z,22.67
2019-05-02T17:21:04.516Z,27.57
2019-05-02T17:23:37.489Z,26.53
2019-05-02T17:26:09.464Z,22.03
2019-05-02T17:28:43.350Z,19.00
2019-05-02T17:31:19.330Z,20.17
2019-05-02T17:33:46.195Z,19.10
2019-05-02T17:36:23.688Z,26.60
2019-05-02T17:38:53.812Z,19.07
2019-05-02T17:41:22.613Z,19.63
2019-05-02T17:43:55.734Z,23.27
2019-05-02T17:46:26.015Z,25.63
2019-05-02T17:48:58.761Z,22.13
2019-05-02T17:51:40.116Z,19.53
2019-05-02T17:54:12.059Z,22.90
2019-05-02T17:56:43.188Z,24.50
2019-05-02T17:59:13.732Z,22.53
2019-05-02T18:01:44.351Z,24.33
2019-05-02T18:04:16.379Z,23.13
2019-05-02T18:06:52.305Z,25.13
2019-05-02T18:09:21.668Z,30.33
2019-05-02T18:11:52.382Z,24.20
2019-05-02T18:14:24.062Z,25.27
2019-05-02T18:16:55.699Z,29.47
2019-05-02T18:19:26.271Z,22.93
2019-05-02T18:21:58.188Z,19.50
2019-05-02T18:24:29.112Z,22.77
2019-05-02T18:26:59.707Z,22.17
2019-05-02T18:29:36.253Z,26.67
2019-05-02T18:32:04.100Z,32.07
2019-05-02T18:34:34.726Z,24.33
2019-05-02T18:37:06.341Z,35.33
2019-05-02T18:39:42.618Z,24.10
2019-05-02T18:42:09.381Z,31.40
2019-05-02T18:44:41.929Z,23.07
2019-05-02T18:47:19.995Z,25.50
2019-05-02T18:49:44.348Z,24.93
2019-05-02T18:52:14.983Z,29.40
2019-05-02T18:54:47.400Z,27.70
2019-05-02T18:57:24.443Z,25.37
2019-05-02T18:59:51.954Z,28.00
2019-05-02T19:02:26.317Z,24.90
2019-05-02T19:04:55.912Z,31.70
2019-05-02T19:07:33.065Z,21.63
2019-05-02T19:09:58.932Z,23.90
2019-05-02T19:12:32.790Z,29.30
2019-05-02T19:15:06.991Z,24.47
2019-05-02T19:17:38.439Z,23.80
2019-05-02T19:20:22.136Z,26.87
2019-05-02T19:22:56.857Z,25.00
2019-05-02T19:25:27.554Z,30.20
2019-05-02T19:28:05.923Z,36.10
2019-05-02T19:30:37.109Z,26.03
2019-05-02T19:33:08.116Z,24.87
2019-05-02T19:35:45.314Z,30.97
2019-05-02T19:38:11.890Z,26.47
2019-05-02T19:40:42.860Z,32.33
2019-05-02T19:43:15.103Z,28.77
2019-05-02T19:45:45.701Z,27.93
2019-05-02T19:48:17.883Z,28.43
2019-05-02T19:50:48.598Z,26.53
2019-05-02T19:53:19.675Z,28.23
2019-05-02T19:55:52.067Z,26.73
2019-05-02T19:58:23.795Z,28.47
2019-05-02T20:00:54.293Z,25.77
2019-05-02T20:03:26.205Z,24.57
2019-05-02T20:06:02.318Z,33.63
2019-05-02T20:08:29.130Z,26.13
2019-05-02T20:11:02.180Z,28.70
2019-05-02T20:13:32.911Z,28.67
2019-05-02T20:16:18.234Z,27.10
2019-05-02T20:18:48.711Z,28.00
2019-05-02T20:21:29.530Z,25.30
2019-05-02T20:24:02.056Z,29.50
2019-05-02T20:26:34.027Z,37.83
2019-05-02T20:29:04.577Z,30.77
2019-05-02T20:31:35.252Z,32.93
2019-05-02T20:34:06.328Z,30.53
2019-05-02T20:36:36.972Z,26.10
2019-05-02T20:39:11.747Z,28.80
2019-05-02T20:41:42.045Z,25.27
2019-05-02T20:44:12.806Z,31.07
2019-05-02T20:46:43.405Z,28.97
2019-05-02T20:49:14.068Z,24.73
2019-05-02T20:51:44.610Z,27.90
2019-05-02T20:54:16.372Z,31.13
2019-05-02T20:56:46.929Z,32.07
2019-05-02T20:59:17.621Z,29.13
2019-05-02T21:01:52.287Z,33.73
2019-05-02T21:04:23.002Z,28.13
2019-05-02T21:07:12.048Z,29.57
2019-05-02T21:10:05.271Z,33.00
2019-05-02T21:12:35.888Z,30.37
2019-05-02T21:15:07.016Z,28.60
2019-05-02T21:17:37.727Z,27.13
2019-05-02T21:20:08.385Z,29.50
2019-05-02T21:22:39.002Z,26.27
2019-05-02T21:25:12.858Z,26.53
2019-05-02T21:27:43.094Z,27.97
2019-05-02T21:30:14.852Z,27.93
2019-05-02T21:32:45.759Z,31.30
2019-05-02T21:35:16.316Z,30.37
2019-05-02T21:37:46.851Z,26.43
2019-05-02T21:40:17.563Z,25.70
2019-05-02T21:42:48.649Z,24.50
2019-05-02T21:45:19.552Z,24.13
2019-05-02T21:47:50.223Z,23.23
2019-05-02T21:50:32.339Z,27.03
2019-05-02T21:53:22.243Z,29.70
2019-05-02T21:56:12.334Z,29.07
2019-05-02T21:59:02.952Z,33.43
2019-05-02T22:01:36.052Z,34.27
2019-05-02T22:04:06.676Z,38.07
2019-05-02T22:06:37.190Z,33.30
2019-05-02T22:09:08.853Z,37.57
2019-05-02T22:11:39.891Z,39.40
2019-05-02T22:14:10.429Z,34.57
2019-05-02T22:16:42.080Z,38.17
2019-05-02T22:19:12.813Z,31.57
2019-05-02T22:21:43.353Z,35.30
2019-05-02T22:24:14.523Z,40.17
2019-05-02T22:26:45.092Z,33.93
2019-05-02T22:29:15.664Z,42.40
2019-05-02T22:31:46.296Z,39.17
2019-05-02T22:34:16.874Z,42.00
2019-05-02T22:36:47.458Z,38.10
2019-05-02T22:39:45.993Z,37.37
2019-05-02T22:42:18.045Z,39.20
2019-05-02T22:44:48.645Z,42.67
2019-05-02T22:47:19.216Z,36.10
2019-05-02T22:49:51.709Z,36.00
2019-05-02T22:52:22.050Z,39.83
2019-05-02T22:54:52.524Z,36.83
2019-05-02T22:57:23.112Z,37.13
2019-05-02T22:59:53.734Z,41.50
2019-05-02T23:02:24.389Z,35.60
2019-05-02T23:04:54.924Z,35.00
2019-05-02T23:07:25.639Z,31.53
2019-05-02T23:09:56.304Z,32.67
2019-05-02T23:12:26.827Z,34.00
2019-05-02T23:14:57.463Z,34.47
2019-05-02T23:17:28.064Z,34.30
2019-05-02T23:19:58.596Z,38.80
2019-05-02T23:22:29.090Z,30.80
2019-05-02T23:25:32.196Z,32.10
2019-05-02T23:28:07.201Z,32.83
2019-05-02T23:30:37.845Z,30.77
2019-05-02T23:33:08.302Z,32.10
2019-05-02T23:35:38.914Z,33.97
2019-05-02T23:38:09.496Z,31.23
2019-05-02T23:40:42.103Z,30.77
2019-05-02T23:43:12.608Z,30.13
2019-05-02T23:45:43.142Z,30.33
2019-05-02T23:48:14.710Z,35.07
2019-05-02T23:50:45.254Z,32.17
2019-05-02T23:53:15.808Z,33.53
2019-05-02T23:55:47.922Z,32.03
2019-05-02T23:58:18.527Z,31.80
